sensor_id;sensor_type;location;lat;lon;timestamp;P1;durP1;ratioP1;P2;durP2;ratioP2
69744;SDS011;57015;50.120;-5.168;2023-03-13T00:01:01;47.50;;;6.47;;
69744;SDS011;57015;50.120;-5.168;2023-03-13T00:03:32;40.13;;;5.30;;
69744;SDS011;57015;50.120;-5.168;2023-03-13T00:05:57;38.67;;;8.43;;
69744;SDS011;57015;50.120;-5.168;2023-03-13T00:08:23;37.72;;;6.53;;
69744;SDS011;57015;50.120;-5.168;2023-03-13T00:10:49;29.47;;;5.33;;
69744;SDS011;57015;50.120;-5.168;2023-03-13T00:13:15;30.33;;;4.78;;
69744;SDS011;57015;50.120;-5.168;2023-03-13T00:15:41;32.93;;;5.03;;
69744;SDS011;57015;50.120;-5.168;2023-03-13T00:18:06;28.08;;;4.13;;
69744;SDS011;57015;50.120;-5.168;2023-03-13T00:20:32;37.53;;;5.15;;
69744;SDS011;57015;50.120;-5.168;2023-03-13T00:22:57;25.47;;;4.40;;
69744;SDS011;57015;50.120;-5.168;2023-03-13T00:25:22;29.70;;;6.40;;
69744;SDS011;57015;50.120;-5.168;2023-03-13T00:27:48;39.60;;;5.27;;
69744;SDS011;57015;50.120;-5.168;2023-03-13T00:30:13;31.87;;;4.63;;
69744;SDS011;57015;50.120;-5.168;2023-03-13T00:32:42;36.03;;;5.73;;
69744;SDS011;57015;50.120;-5.168;2023-03-13T00:35:10;37.67;;;5.60;;
69744;SDS011;57015;50.120;-5.168;2023-03-13T00:37:36;30.25;;;4.65;;
69744;SDS011;57015;50.120;-5.168;2023-03-13T00:40:01;36.83;;;6.33;;
69744;SDS011;57015;50.120;-5.168;2023-03-13T00:42:28;30.33;;;5.32;;
69744;SDS011;57015;50.120;-5.168;2023-03-13T00:44:53;33.13;;;4.17;;
69744;SDS011;57015;50.120;-5.168;2023-03-13T00:47:19;22.73;;;3.80;;
69744;SDS011;57015;50.120;-5.168;2023-03-13T00:49:44;34.33;;;5.73;;
69744;SDS011;57015;50.120;-5.168;2023-03-13T00:52:09;43.37;;;5.57;;
69744;SDS011;57015;50.120;-5.168;2023-03-13T00:54:35;32.47;;;5.17;;
69744;SDS011;57015;50.120;-5.168;2023-03-13T00:57:00;41.43;;;4.83;;
69744;SDS011;57015;50.120;-5.168;2023-03-13T00:59:25;35.60;;;4.35;;
69744;SDS011;57015;50.120;-5.168;2023-03-13T01:01:51;38.42;;;5.70;;
69744;SDS011;57015;50.120;-5.168;2023-03-13T01:04:16;42.17;;;5.53;;
69744;SDS011;57015;50.120;-5.168;2023-03-13T01:06:42;37.70;;;6.17;;
69744;SDS011;57015;50.120;-5.168;2023-03-13T01:09:08;48.80;;;5.23;;
69744;SDS011;57015;50.120;-5.168;2023-03-13T01:11:35;47.90;;;5.25;;
69744;SDS011;57015;50.120;-5.168;2023-03-13T01:14:03;45.00;;;7.63;;
69744;SDS011;57015;50.120;-5.168;2023-03-13T01:16:32;42.67;;;5.50;;
69744;SDS011;57015;50.120;-5.168;2023-03-13T01:18:59;37.00;;;5.43;;
69744;SDS011;57015;50.120;-5.168;2023-03-13T01:21:25;49.83;;;6.88;;
69744;SDS011;57015;50.120;-5.168;2023-03-13T01:23:51;35.28;;;5.45;;
69744;SDS011;57015;50.120;-5.168;2023-03-13T01:26:18;45.67;;;6.47;;
69744;SDS011;57015;50.120;-5.168;2023-03-13T01:28:44;35.28;;;5.38;;
69744;SDS011;57015;50.120;-5.168;2023-03-13T01:31:16;33.87;;;5.03;;
69744;SDS011;57015;50.120;-5.168;2023-03-13T01:33:42;49.35;;;7.38;;
69744;SDS011;57015;50.120;-5.168;2023-03-13T01:36:08;45.13;;;7.07;;
69744;SDS011;57015;50.120;-5.168;2023-03-13T01:38:34;34.13;;;5.87;;
69744;SDS011;57015;50.120;-5.168;2023-03-13T01:40:59;46.63;;;6.45;;
69744;SDS011;57015;50.120;-5.168;2023-03-13T01:43:26;46.97;;;6.17;;
69744;SDS011;57015;50.120;-5.168;2023-03-13T01:51:17;37.93;;;6.03;;
69744;SDS011;57015;50.120;-5.168;2023-03-13T01:53:46;38.25;;;7.18;;
69744;SDS011;57015;50.120;-5.168;2023-03-13T01:56:17;41.42;;;6.75;;
69744;SDS011;57015;50.120;-5.168;2023-03-13T01:58:45;37.42;;;5.97;;
69744;SDS011;57015;50.120;-5.168;2023-03-13T02:01:11;42.17;;;6.82;;
69744;SDS011;57015;50.120;-5.168;2023-03-13T02:03:38;43.47;;;5.50;;
69744;SDS011;57015;50.120;-5.168;2023-03-13T02:06:03;38.05;;;6.40;;
69744;SDS011;57015;50.120;-5.168;2023-03-13T02:08:31;44.97;;;6.03;;
69744;SDS011;57015;50.120;-5.168;2023-03-13T02:11:23;39.67;;;6.27;;
69744;SDS011;57015;50.120;-5.168;2023-03-13T02:13:52;38.17;;;6.38;;
69744;SDS011;57015;50.120;-5.168;2023-03-13T02:16:17;37.83;;;5.82;;
69744;SDS011;57015;50.120;-5.168;2023-03-13T02:18:43;36.73;;;5.53;;
69744;SDS011;57015;50.120;-5.168;2023-03-13T02:21:10;32.40;;;6.50;;
69744;SDS011;57015;50.120;-5.168;2023-03-13T02:23:43;45.95;;;7.05;;
69744;SDS011;57015;50.120;-5.168;2023-03-13T02:26:15;39.03;;;5.60;;
69744;SDS011;57015;50.120;-5.168;2023-03-13T02:28:40;45.47;;;4.97;;
69744;SDS011;57015;50.120;-5.168;2023-03-13T02:31:05;38.10;;;5.67;;
69744;SDS011;57015;50.120;-5.168;2023-03-13T02:33:38;38.08;;;5.78;;
69744;SDS011;57015;50.120;-5.168;2023-03-13T02:36:05;36.67;;;4.95;;
69744;SDS011;57015;50.120;-5.168;2023-03-13T02:38:32;50.10;;;6.37;;
69744;SDS011;57015;50.120;-5.168;2023-03-13T02:40:59;40.45;;;6.47;;
69744;SDS011;57015;50.120;-5.168;2023-03-13T02:43:29;48.70;;;6.00;;
69744;SDS011;57015;50.120;-5.168;2023-03-13T02:48:39;44.53;;;6.75;;
69744;SDS011;57015;50.120;-5.168;2023-03-13T02:51:23;45.00;;;6.47;;
69744;SDS011;57015;50.120;-5.168;2023-03-13T02:53:49;46.78;;;6.28;;
69744;SDS011;57015;50.120;-5.168;2023-03-13T02:56:17;36.85;;;7.78;;
69744;SDS011;57015;50.120;-5.168;2023-03-13T02:58:44;47.78;;;7.75;;
69744;SDS011;57015;50.120;-5.168;2023-03-13T03:01:10;47.03;;;6.30;;
69744;SDS011;57015;50.120;-5.168;2023-03-13T03:03:35;48.67;;;6.93;;
69744;SDS011;57015;50.120;-5.168;2023-03-13T03:06:01;40.80;;;7.90;;
69744;SDS011;57015;50.120;-5.168;2023-03-13T03:08:27;43.53;;;6.45;;
69744;SDS011;57015;50.120;-5.168;2023-03-13T03:10:53;61.35;;;8.13;;
69744;SDS011;57015;50.120;-5.168;2023-03-13T03:13:18;67.47;;;9.02;;
69744;SDS011;57015;50.120;-5.168;2023-03-13T03:15:44;56.37;;;7.07;;
69744;SDS011;57015;50.120;-5.168;2023-03-13T03:18:09;48.33;;;7.77;;
69744;SDS011;57015;50.120;-5.168;2023-03-13T03:20:35;47.90;;;6.33;;
69744;SDS011;57015;50.120;-5.168;2023-03-13T03:23:00;56.50;;;7.10;;
69744;SDS011;57015;50.120;-5.168;2023-03-13T03:25:25;48.00;;;6.40;;
69744;SDS011;57015;50.120;-5.168;2023-03-13T03:27:51;55.50;;;9.07;;
69744;SDS011;57015;50.120;-5.168;2023-03-13T03:30:16;56.47;;;6.50;;
69744;SDS011;57015;50.120;-5.168;2023-03-13T03:32:42;48.37;;;6.90;;
69744;SDS011;57015;50.120;-5.168;2023-03-13T03:35:07;61.00;;;8.23;;
69744;SDS011;57015;50.120;-5.168;2023-03-13T03:37:32;53.20;;;7.00;;
69744;SDS011;57015;50.120;-5.168;2023-03-13T03:39:58;58.38;;;8.60;;
69744;SDS011;57015;50.120;-5.168;2023-03-13T03:42:23;64.17;;;7.27;;
69744;SDS011;57015;50.120;-5.168;2023-03-13T03:44:49;50.57;;;7.97;;
69744;SDS011;57015;50.120;-5.168;2023-03-13T03:47:14;57.97;;;7.43;;
69744;SDS011;57015;50.120;-5.168;2023-03-13T03:49:39;56.67;;;6.90;;
69744;SDS011;57015;50.120;-5.168;2023-03-13T03:52:05;52.20;;;7.63;;
69744;SDS011;57015;50.120;-5.168;2023-03-13T03:54:30;50.63;;;7.75;;
69744;SDS011;57015;50.120;-5.168;2023-03-13T03:56:56;52.20;;;6.70;;
69744;SDS011;57015;50.120;-5.168;2023-03-13T03:59:21;48.53;;;7.47;;
69744;SDS011;57015;50.120;-5.168;2023-03-13T04:01:46;55.57;;;7.73;;
69744;SDS011;57015;50.120;-5.168;2023-03-13T04:04:12;48.37;;;7.13;;
69744;SDS011;57015;50.120;-5.168;2023-03-13T04:06:37;51.73;;;7.37;;
69744;SDS011;57015;50.120;-5.168;2023-03-13T04:09:03;50.07;;;8.63;;
69744;SDS011;57015;50.120;-5.168;2023-03-13T04:11:28;52.58;;;7.30;;
69744;SDS011;57015;50.120;-5.168;2023-03-13T04:13:54;56.40;;;7.40;;
69744;SDS011;57015;50.120;-5.168;2023-03-13T04:16:19;52.83;;;8.37;;
69744;SDS011;57015;50.120;-5.168;2023-03-13T04:18:45;52.55;;;6.85;;
69744;SDS011;57015;50.120;-5.168;2023-03-13T04:21:10;57.45;;;8.70;;
69744;SDS011;57015;50.120;-5.168;2023-03-13T04:23:35;58.17;;;6.77;;
69744;SDS011;57015;50.120;-5.168;2023-03-13T04:26:01;57.57;;;7.77;;
69744;SDS011;57015;50.120;-5.168;2023-03-13T04:28:26;61.70;;;8.47;;
69744;SDS011;57015;50.120;-5.168;2023-03-13T04:30:51;64.07;;;8.20;;
69744;SDS011;57015;50.120;-5.168;2023-03-13T04:33:21;68.22;;;7.97;;
69744;SDS011;57015;50.120;-5.168;2023-03-13T04:35:47;66.65;;;8.05;;
69744;SDS011;57015;50.120;-5.168;2023-03-13T04:38:12;66.80;;;8.80;;
69744;SDS011;57015;50.120;-5.168;2023-03-13T04:40:38;53.67;;;8.37;;
69744;SDS011;57015;50.120;-5.168;2023-03-13T04:43:03;49.47;;;7.80;;
69744;SDS011;57015;50.120;-5.168;2023-03-13T04:45:28;67.30;;;9.70;;
69744;SDS011;57015;50.120;-5.168;2023-03-13T04:47:54;60.00;;;8.17;;
69744;SDS011;57015;50.120;-5.168;2023-03-13T04:50:20;60.40;;;7.38;;
69744;SDS011;57015;50.120;-5.168;2023-03-13T04:52:45;61.03;;;8.33;;
69744;SDS011;57015;50.120;-5.168;2023-03-13T04:55:10;51.20;;;8.53;;
69744;SDS011;57015;50.120;-5.168;2023-03-13T04:57:36;58.87;;;8.37;;
69744;SDS011;57015;50.120;-5.168;2023-03-13T05:00:01;56.88;;;7.55;;
69744;SDS011;57015;50.120;-5.168;2023-03-13T05:02:29;43.70;;;7.13;;
69744;SDS011;57015;50.120;-5.168;2023-03-13T05:04:54;56.27;;;7.80;;
69744;SDS011;57015;50.120;-5.168;2023-03-13T05:07:20;75.30;;;10.13;;
69744;SDS011;57015;50.120;-5.168;2023-03-13T05:09:45;55.88;;;8.63;;
69744;SDS011;57015;50.120;-5.168;2023-03-13T05:12:10;57.27;;;8.00;;
69744;SDS011;57015;50.120;-5.168;2023-03-13T05:14:36;57.60;;;7.30;;
69744;SDS011;57015;50.120;-5.168;2023-03-13T05:17:01;44.57;;;6.63;;
69744;SDS011;57015;50.120;-5.168;2023-03-13T05:19:26;62.73;;;10.00;;
69744;SDS011;57015;50.120;-5.168;2023-03-13T05:21:52;51.97;;;7.20;;
69744;SDS011;57015;50.120;-5.168;2023-03-13T05:24:17;55.87;;;7.67;;
69744;SDS011;57015;50.120;-5.168;2023-03-13T05:26:42;67.40;;;8.43;;
69744;SDS011;57015;50.120;-5.168;2023-03-13T05:29:08;49.67;;;7.63;;
69744;SDS011;57015;50.120;-5.168;2023-03-13T05:31:33;54.67;;;7.70;;
69744;SDS011;57015;50.120;-5.168;2023-03-13T05:33:58;55.92;;;7.90;;
69744;SDS011;57015;50.120;-5.168;2023-03-13T05:36:24;54.20;;;8.07;;
69744;SDS011;57015;50.120;-5.168;2023-03-13T05:38:49;62.67;;;8.77;;
69744;SDS011;57015;50.120;-5.168;2023-03-13T05:41:14;54.40;;;7.53;;
69744;SDS011;57015;50.120;-5.168;2023-03-13T05:43:40;62.80;;;7.97;;
69744;SDS011;57015;50.120;-5.168;2023-03-13T05:46:05;56.77;;;8.87;;
69744;SDS011;57015;50.120;-5.168;2023-03-13T05:48:30;63.43;;;8.50;;
69744;SDS011;57015;50.120;-5.168;2023-03-13T05:50:56;60.60;;;7.97;;
69744;SDS011;57015;50.120;-5.168;2023-03-13T05:53:21;51.40;;;6.97;;
69744;SDS011;57015;50.120;-5.168;2023-03-13T05:55:46;51.40;;;10.40;;
69744;SDS011;57015;50.120;-5.168;2023-03-13T05:58:12;52.95;;;6.90;;
69744;SDS011;57015;50.120;-5.168;2023-03-13T06:00:37;65.10;;;7.53;;
69744;SDS011;57015;50.120;-5.168;2023-03-13T06:03:03;52.40;;;9.00;;
69744;SDS011;57015;50.120;-5.168;2023-03-13T06:05:28;52.20;;;7.53;;
69744;SDS011;57015;50.120;-5.168;2023-03-13T06:07:53;54.23;;;6.53;;
69744;SDS011;57015;50.120;-5.168;2023-03-13T06:10:19;47.43;;;6.90;;
69744;SDS011;57015;50.120;-5.168;2023-03-13T06:12:50;52.27;;;6.57;;
69744;SDS011;57015;50.120;-5.168;2023-03-13T06:15:16;52.30;;;7.38;;
69744;SDS011;57015;50.120;-5.168;2023-03-13T06:17:42;53.93;;;8.23;;
69744;SDS011;57015;50.120;-5.168;2023-03-13T06:20:07;59.57;;;7.60;;
69744;SDS011;57015;50.120;-5.168;2023-03-13T06:22:33;49.53;;;7.32;;
69744;SDS011;57015;50.120;-5.168;2023-03-13T06:24:59;48.80;;;7.40;;
69744;SDS011;57015;50.120;-5.168;2023-03-13T06:27:24;51.07;;;8.97;;
69744;SDS011;57015;50.120;-5.168;2023-03-13T06:29:49;42.65;;;7.07;;
69744;SDS011;57015;50.120;-5.168;2023-03-13T06:32:15;52.00;;;6.22;;
69744;SDS011;57015;50.120;-5.168;2023-03-13T06:34:40;51.03;;;8.80;;
69744;SDS011;57015;50.120;-5.168;2023-03-13T06:37:05;49.67;;;6.93;;
69744;SDS011;57015;50.120;-5.168;2023-03-13T06:39:31;54.47;;;7.30;;
69744;SDS011;57015;50.120;-5.168;2023-03-13T06:41:56;66.30;;;8.07;;
69744;SDS011;57015;50.120;-5.168;2023-03-13T06:44:22;53.20;;;6.97;;
69744;SDS011;57015;50.120;-5.168;2023-03-13T06:46:47;46.90;;;7.25;;
69744;SDS011;57015;50.120;-5.168;2023-03-13T06:49:12;45.60;;;6.50;;
69744;SDS011;57015;50.120;-5.168;2023-03-13T06:51:38;55.80;;;6.60;;
69744;SDS011;57015;50.120;-5.168;2023-03-13T06:54:03;41.90;;;6.40;;
69744;SDS011;57015;50.120;-5.168;2023-03-13T06:56:28;51.53;;;7.40;;
69744;SDS011;57015;50.120;-5.168;2023-03-13T06:58:54;49.90;;;7.30;;
69744;SDS011;57015;50.120;-5.168;2023-03-13T07:01:19;51.33;;;7.43;;
69744;SDS011;57015;50.120;-5.168;2023-03-13T07:03:45;45.53;;;6.63;;
69744;SDS011;57015;50.120;-5.168;2023-03-13T07:06:11;47.38;;;7.43;;
69744;SDS011;57015;50.120;-5.168;2023-03-13T07:08:37;51.37;;;7.97;;
69744;SDS011;57015;50.120;-5.168;2023-03-13T07:11:04;57.58;;;7.93;;
69744;SDS011;57015;50.120;-5.168;2023-03-13T07:13:33;51.70;;;7.95;;
69744;SDS011;57015;50.120;-5.168;2023-03-13T07:16:03;55.47;;;7.53;;
69744;SDS011;57015;50.120;-5.168;2023-03-13T07:18:29;56.65;;;6.85;;
69744;SDS011;57015;50.120;-5.168;2023-03-13T07:20:56;50.67;;;7.18;;
69744;SDS011;57015;50.120;-5.168;2023-03-13T07:23:22;57.60;;;8.23;;
69744;SDS011;57015;50.120;-5.168;2023-03-13T07:25:55;62.92;;;8.80;;
69744;SDS011;57015;50.120;-5.168;2023-03-13T07:28:22;57.47;;;8.30;;
69744;SDS011;57015;50.120;-5.168;2023-03-13T07:30:48;51.92;;;7.70;;
69744;SDS011;57015;50.120;-5.168;2023-03-13T07:33:14;48.97;;;7.80;;
69744;SDS011;57015;50.120;-5.168;2023-03-13T07:35:39;60.90;;;7.57;;
69744;SDS011;57015;50.120;-5.168;2023-03-13T07:38:05;56.87;;;7.73;;
69744;SDS011;57015;50.120;-5.168;2023-03-13T07:40:30;48.47;;;7.33;;
69744;SDS011;57015;50.120;-5.168;2023-03-13T07:42:55;56.57;;;8.30;;
69744;SDS011;57015;50.120;-5.168;2023-03-13T07:45:21;47.88;;;6.55;;
69744;SDS011;57015;50.120;-5.168;2023-03-13T07:47:46;42.72;;;6.97;;
69744;SDS011;57015;50.120;-5.168;2023-03-13T07:50:11;51.70;;;7.73;;
69744;SDS011;57015;50.120;-5.168;2023-03-13T07:52:37;62.83;;;8.33;;
69744;SDS011;57015;50.120;-5.168;2023-03-13T07:55:02;53.53;;;8.10;;
69744;SDS011;57015;50.120;-5.168;2023-03-13T07:57:28;62.23;;;8.47;;
69744;SDS011;57015;50.120;-5.168;2023-03-13T07:59:53;46.33;;;7.53;;
69744;SDS011;57015;50.120;-5.168;2023-03-13T08:02:18;50.80;;;7.72;;
69744;SDS011;57015;50.120;-5.168;2023-03-13T08:04:44;52.03;;;7.47;;
69744;SDS011;57015;50.120;-5.168;2023-03-13T08:07:09;61.27;;;8.07;;
69744;SDS011;57015;50.120;-5.168;2023-03-13T08:09:35;51.63;;;7.87;;
69744;SDS011;57015;50.120;-5.168;2023-03-13T08:12:00;52.58;;;8.40;;
69744;SDS011;57015;50.120;-5.168;2023-03-13T08:14:26;53.03;;;8.40;;
69744;SDS011;57015;50.120;-5.168;2023-03-13T08:16:51;59.00;;;8.93;;
69744;SDS011;57015;50.120;-5.168;2023-03-13T08:19:17;51.20;;;8.00;;
69744;SDS011;57015;50.120;-5.168;2023-03-13T08:21:42;54.60;;;8.27;;
69744;SDS011;57015;50.120;-5.168;2023-03-13T08:24:09;49.42;;;6.50;;
69744;SDS011;57015;50.120;-5.168;2023-03-13T08:26:37;47.75;;;8.93;;
69744;SDS011;57015;50.120;-5.168;2023-03-13T08:29:09;44.63;;;7.65;;
69744;SDS011;57015;50.120;-5.168;2023-03-13T08:31:38;51.58;;;8.73;;
69744;SDS011;57015;50.120;-5.168;2023-03-13T08:34:13;49.47;;;7.93;;
69744;SDS011;57015;50.120;-5.168;2023-03-13T08:36:39;76.70;;;10.30;;
69744;SDS011;57015;50.120;-5.168;2023-03-13T08:39:10;51.40;;;7.18;;
69744;SDS011;57015;50.120;-5.168;2023-03-13T08:41:37;52.95;;;6.93;;
69744;SDS011;57015;50.120;-5.168;2023-03-13T08:44:04;52.53;;;8.18;;
69744;SDS011;57015;50.120;-5.168;2023-03-13T08:46:31;50.40;;;7.97;;
69744;SDS011;57015;50.120;-5.168;2023-03-13T08:48:58;53.20;;;7.80;;
69744;SDS011;57015;50.120;-5.168;2023-03-13T08:51:24;48.03;;;7.73;;
69744;SDS011;57015;50.120;-5.168;2023-03-13T08:53:51;61.78;;;6.90;;
69744;SDS011;57015;50.120;-5.168;2023-03-13T08:56:17;52.58;;;8.18;;
69744;SDS011;57015;50.120;-5.168;2023-03-13T08:58:47;51.10;;;6.63;;
69744;SDS011;57015;50.120;-5.168;2023-03-13T09:01:17;54.78;;;7.05;;
69744;SDS011;57015;50.120;-5.168;2023-03-13T09:03:43;52.70;;;8.00;;
69744;SDS011;57015;50.120;-5.168;2023-03-13T09:06:09;48.93;;;7.10;;
69744;SDS011;57015;50.120;-5.168;2023-03-13T09:08:34;47.50;;;7.13;;
69744;SDS011;57015;50.120;-5.168;2023-03-13T09:11:02;56.13;;;7.53;;
69744;SDS011;57015;50.120;-5.168;2023-03-13T09:13:32;44.63;;;7.20;;
69744;SDS011;57015;50.120;-5.168;2023-03-13T09:16:00;49.95;;;6.53;;
69744;SDS011;57015;50.120;-5.168;2023-03-13T09:18:27;49.20;;;7.15;;
69744;SDS011;57015;50.120;-5.168;2023-03-13T09:20:53;54.90;;;9.00;;
69744;SDS011;57015;50.120;-5.168;2023-03-13T09:23:19;55.50;;;7.28;;
69744;SDS011;57015;50.120;-5.168;2023-03-13T09:25:45;58.47;;;7.97;;
69744;SDS011;57015;50.120;-5.168;2023-03-13T09:28:12;48.25;;;7.13;;
69744;SDS011;57015;50.120;-5.168;2023-03-13T09:30:37;53.97;;;7.23;;
69744;SDS011;57015;50.120;-5.168;2023-03-13T09:33:02;57.42;;;7.72;;
69744;SDS011;57015;50.120;-5.168;2023-03-13T09:35:28;51.08;;;7.18;;
69744;SDS011;57015;50.120;-5.168;2023-03-13T09:37:53;47.07;;;6.60;;
69744;SDS011;57015;50.120;-5.168;2023-03-13T09:40:19;43.80;;;6.87;;
69744;SDS011;57015;50.120;-5.168;2023-03-13T09:42:50;55.53;;;7.05;;
69744;SDS011;57015;50.120;-5.168;2023-03-13T09:45:28;47.83;;;6.43;;
69744;SDS011;57015;50.120;-5.168;2023-03-13T09:47:59;44.55;;;7.07;;
69744;SDS011;57015;50.120;-5.168;2023-03-13T09:50:39;55.72;;;7.15;;
69744;SDS011;57015;50.120;-5.168;2023-03-13T09:53:14;51.38;;;7.57;;
69744;SDS011;57015;50.120;-5.168;2023-03-13T09:55:44;59.17;;;7.38;;
69744;SDS011;57015;50.120;-5.168;2023-03-13T09:58:12;52.47;;;7.77;;
69744;SDS011;57015;50.120;-5.168;2023-03-13T10:00:40;51.97;;;8.02;;
69744;SDS011;57015;50.120;-5.168;2023-03-13T10:05:35;51.53;;;7.03;;
69744;SDS011;57015;50.120;-5.168;2023-03-13T10:08:12;57.95;;;8.07;;
69744;SDS011;57015;50.120;-5.168;2023-03-13T10:10:51;42.95;;;6.32;;
69744;SDS011;57015;50.120;-5.168;2023-03-13T10:13:33;55.67;;;7.57;;
69744;SDS011;57015;50.120;-5.168;2023-03-13T10:16:19;52.47;;;8.23;;
69744;SDS011;57015;50.120;-5.168;2023-03-13T10:18:48;54.08;;;6.93;;
69744;SDS011;57015;50.120;-5.168;2023-03-13T10:21:19;48.00;;;6.95;;
69744;SDS011;57015;50.120;-5.168;2023-03-13T10:26:33;55.75;;;8.18;;
69744;SDS011;57015;50.120;-5.168;2023-03-13T10:31:46;58.45;;;10.00;;
69744;SDS011;57015;50.120;-5.168;2023-03-13T10:34:21;42.08;;;7.22;;
69744;SDS011;57015;50.120;-5.168;2023-03-13T10:36:47;46.63;;;6.93;;
69744;SDS011;57015;50.120;-5.168;2023-03-13T10:39:18;59.95;;;7.97;;
69744;SDS011;57015;50.120;-5.168;2023-03-13T10:41:47;52.22;;;8.00;;
69744;SDS011;57015;50.120;-5.168;2023-03-13T10:44:16;51.05;;;9.38;;
69744;SDS011;57015;50.120;-5.168;2023-03-13T10:46:44;45.22;;;6.30;;
69744;SDS011;57015;50.120;-5.168;2023-03-13T10:49:20;46.83;;;7.03;;
69744;SDS011;57015;50.120;-5.168;2023-03-13T10:51:55;46.33;;;7.03;;
69744;SDS011;57015;50.120;-5.168;2023-03-13T10:54:28;52.95;;;7.20;;
69744;SDS011;57015;50.120;-5.168;2023-03-13T10:57:38;50.45;;;7.97;;
69744;SDS011;57015;50.120;-5.168;2023-03-13T10:59:50;55.70;;;6.47;;
69744;SDS011;57015;50.120;-5.168;2023-03-13T11:04:44;49.53;;;7.70;;
69744;SDS011;57015;50.120;-5.168;2023-03-13T11:07:35;48.55;;;7.13;;
69744;SDS011;57015;50.120;-5.168;2023-03-13T11:10:22;49.63;;;6.93;;
69744;SDS011;57015;50.120;-5.168;2023-03-13T11:12:54;42.92;;;6.90;;
69744;SDS011;57015;50.120;-5.168;2023-03-13T11:15:22;42.70;;;6.40;;
69744;SDS011;57015;50.120;-5.168;2023-03-13T11:17:55;49.08;;;6.80;;
69744;SDS011;57015;50.120;-5.168;2023-03-13T11:31:14;44.63;;;6.57;;
69744;SDS011;57015;50.120;-5.168;2023-03-13T11:36:53;48.67;;;6.53;;
69744;SDS011;57015;50.120;-5.168;2023-03-13T11:51:05;45.90;;;5.10;;
69744;SDS011;57015;50.120;-5.168;2023-03-13T11:56:16;46.50;;;6.87;;
69744;SDS011;57015;50.120;-5.168;2023-03-13T12:01:36;45.22;;;7.90;;
69744;SDS011;57015;50.120;-5.168;2023-03-13T12:04:05;42.65;;;5.75;;
69744;SDS011;57015;50.120;-5.168;2023-03-13T12:06:41;42.25;;;6.10;;
69744;SDS011;57015;50.120;-5.168;2023-03-13T12:09:11;45.10;;;7.17;;
69744;SDS011;57015;50.120;-5.168;2023-03-13T12:11:41;49.40;;;6.40;;
69744;SDS011;57015;50.120;-5.168;2023-03-13T12:14:17;46.95;;;6.70;;
69744;SDS011;57015;50.120;-5.168;2023-03-13T12:17:30;43.03;;;6.55;;
69744;SDS011;57015;50.120;-5.168;2023-03-13T12:19:45;51.05;;;6.05;;
69744;SDS011;57015;50.120;-5.168;2023-03-13T12:22:23;47.87;;;6.23;;
69744;SDS011;57015;50.120;-5.168;2023-03-13T12:24:59;48.72;;;5.15;;
69744;SDS011;57015;50.120;-5.168;2023-03-13T12:27:38;51.92;;;5.95;;
69744;SDS011;57015;50.120;-5.168;2023-03-13T12:35:45;42.17;;;6.20;;
69744;SDS011;57015;50.120;-5.168;2023-03-13T12:40:43;50.95;;;7.25;;
69744;SDS011;57015;50.120;-5.168;2023-03-13T12:43:16;39.65;;;5.53;;
69744;SDS011;57015;50.120;-5.168;2023-03-13T13:01:12;42.57;;;5.03;;
69744;SDS011;57015;50.120;-5.168;2023-03-13T13:04:04;50.05;;;5.60;;
69744;SDS011;57015;50.120;-5.168;2023-03-13T13:12:37;36.92;;;5.43;;
69744;SDS011;57015;50.120;-5.168;2023-03-13T13:15:15;44.80;;;6.13;;
69744;SDS011;57015;50.120;-5.168;2023-03-13T13:20:44;51.03;;;6.00;;
69744;SDS011;57015;50.120;-5.168;2023-03-13T13:23:21;51.22;;;5.78;;
69744;SDS011;57015;50.120;-5.168;2023-03-13T13:31:49;38.92;;;5.93;;
69744;SDS011;57015;50.120;-5.168;2023-03-13T13:36:53;38.95;;;6.70;;
69744;SDS011;57015;50.120;-5.168;2023-03-13T13:39:52;35.00;;;5.10;;
69744;SDS011;57015;50.120;-5.168;2023-03-13T13:45:02;39.20;;;5.78;;
69744;SDS011;57015;50.120;-5.168;2023-03-13T13:47:29;40.55;;;5.43;;
69744;SDS011;57015;50.120;-5.168;2023-03-13T13:49:56;29.38;;;4.55;;
69744;SDS011;57015;50.120;-5.168;2023-03-13T13:52:32;42.42;;;5.40;;
69744;SDS011;57015;50.120;-5.168;2023-03-13T13:55:02;27.73;;;3.27;;
69744;SDS011;57015;50.120;-5.168;2023-03-13T13:57:48;31.20;;;3.45;;
69744;SDS011;57015;50.120;-5.168;2023-03-13T14:00:20;24.00;;;3.50;;
69744;SDS011;57015;50.120;-5.168;2023-03-13T14:02:50;27.70;;;4.28;;
69744;SDS011;57015;50.120;-5.168;2023-03-13T14:05:17;32.72;;;4.53;;
69744;SDS011;57015;50.120;-5.168;2023-03-13T14:07:46;25.88;;;3.85;;
69744;SDS011;57015;50.120;-5.168;2023-03-13T14:12:52;28.97;;;3.47;;
69744;SDS011;57015;50.120;-5.168;2023-03-13T14:15:23;32.40;;;3.28;;
69744;SDS011;57015;50.120;-5.168;2023-03-13T14:18:24;31.27;;;4.32;;
69744;SDS011;57015;50.120;-5.168;2023-03-13T14:20:53;21.55;;;4.03;;
69744;SDS011;57015;50.120;-5.168;2023-03-13T14:23:42;21.42;;;3.53;;
69744;SDS011;57015;50.120;-5.168;2023-03-13T14:26:11;21.23;;;3.13;;
69744;SDS011;57015;50.120;-5.168;2023-03-13T14:28:39;28.48;;;3.42;;
69744;SDS011;57015;50.120;-5.168;2023-03-13T14:31:06;28.92;;;3.92;;
69744;SDS011;57015;50.120;-5.168;2023-03-13T14:33:32;19.38;;;3.15;;
69744;SDS011;57015;50.120;-5.168;2023-03-13T14:35:58;32.00;;;3.63;;
69744;SDS011;57015;50.120;-5.168;2023-03-13T14:38:24;27.52;;;3.40;;
69744;SDS011;57015;50.120;-5.168;2023-03-13T14:40:51;27.60;;;3.67;;
69744;SDS011;57015;50.120;-5.168;2023-03-13T14:45:50;33.80;;;5.57;;
69744;SDS011;57015;50.120;-5.168;2023-03-13T14:48:18;38.17;;;4.60;;
69744;SDS011;57015;50.120;-5.168;2023-03-13T14:50:45;32.40;;;4.07;;
69744;SDS011;57015;50.120;-5.168;2023-03-13T14:53:12;34.65;;;3.80;;
69744;SDS011;57015;50.120;-5.168;2023-03-13T14:55:42;26.52;;;3.92;;
69744;SDS011;57015;50.120;-5.168;2023-03-13T15:00:43;28.27;;;3.33;;
69744;SDS011;57015;50.120;-5.168;2023-03-13T15:05:46;31.50;;;4.80;;
69744;SDS011;57015;50.120;-5.168;2023-03-13T15:08:31;26.48;;;4.18;;
69744;SDS011;57015;50.120;-5.168;2023-03-13T15:10:58;26.07;;;3.50;;
69744;SDS011;57015;50.120;-5.168;2023-03-13T15:15:58;26.15;;;3.75;;
69744;SDS011;57015;50.120;-5.168;2023-03-13T15:18:24;34.17;;;3.83;;
69744;SDS011;57015;50.120;-5.168;2023-03-13T15:20:54;25.98;;;3.72;;
69744;SDS011;57015;50.120;-5.168;2023-03-13T15:23:21;31.88;;;4.38;;
69744;SDS011;57015;50.120;-5.168;2023-03-13T15:25:46;35.08;;;5.35;;
69744;SDS011;57015;50.120;-5.168;2023-03-13T15:28:13;31.80;;;4.10;;
69744;SDS011;57015;50.120;-5.168;2023-03-13T15:30:41;26.05;;;3.72;;
69744;SDS011;57015;50.120;-5.168;2023-03-13T15:33:17;28.58;;;4.35;;
69744;SDS011;57015;50.120;-5.168;2023-03-13T15:35:44;29.43;;;5.00;;
69744;SDS011;57015;50.120;-5.168;2023-03-13T15:38:14;35.85;;;4.45;;
69744;SDS011;57015;50.120;-5.168;2023-03-13T15:40:42;38.35;;;4.68;;
69744;SDS011;57015;50.120;-5.168;2023-03-13T15:43:08;30.48;;;4.10;;
69744;SDS011;57015;50.120;-5.168;2023-03-13T15:45:37;35.23;;;4.67;;
69744;SDS011;57015;50.120;-5.168;2023-03-13T15:48:19;24.63;;;3.70;;
69744;SDS011;57015;50.120;-5.168;2023-03-13T15:50:50;28.35;;;3.47;;
69744;SDS011;57015;50.120;-5.168;2023-03-13T15:55:46;31.10;;;4.23;;
69744;SDS011;57015;50.120;-5.168;2023-03-13T15:58:13;30.20;;;3.35;;
69744;SDS011;57015;50.120;-5.168;2023-03-13T16:00:39;30.60;;;3.72;;
69744;SDS011;57015;50.120;-5.168;2023-03-13T16:03:05;26.05;;;3.90;;
69744;SDS011;57015;50.120;-5.168;2023-03-13T16:05:32;25.98;;;3.05;;
69744;SDS011;57015;50.120;-5.168;2023-03-13T16:07:58;28.47;;;3.93;;
69744;SDS011;57015;50.120;-5.168;2023-03-13T16:10:25;28.90;;;3.60;;
69744;SDS011;57015;50.120;-5.168;2023-03-13T16:12:52;26.98;;;3.22;;
69744;SDS011;57015;50.120;-5.168;2023-03-13T16:15:18;30.67;;;4.03;;